createdAt,value
2023-05-17T00:04:42.682Z,72.33
2023-05-17T00:09:46.463Z,72.42
2023-05-17T00:14:50.006Z,72.63
2023-05-17T00:19:55.051Z,73.32
2023-05-17T00:24:58.740Z,73.91
2023-05-17T00:30:02.193Z,73.85
2023-05-17T00:35:09.729Z,73.99
2023-05-17T00:40:15.021Z,74.42
2023-05-17T00:45:18.565Z,74.52
2023-05-17T00:50:23.807Z,74.78
2023-05-17T00:55:28.496Z,75.07
2023-05-17T01:00:33.426Z,75.08
2023-05-17T01:05:38.340Z,75.45
2023-05-17T01:10:59.124Z,75.71
2023-05-17T01:16:09.801Z,76.09
2023-05-17T01:21:28.386Z,76.24
2023-05-17T01:26:44.142Z,76.66
2023-05-17T01:31:48.340Z,76.88
2023-05-17T01:36:51.743Z,76.94
2023-05-17T01:42:06.568Z,77.12
2023-05-17T01:47:17.831Z,76.99
2023-05-17T01:52:29.712Z,77.08
2023-05-17T01:57:37.387Z,77.43
2023-05-17T02:02:41.263Z,77.73
2023-05-17T02:07:44.664Z,77.58
2023-05-17T02:12:49.624Z,78.26
2023-05-17T02:17:53.632Z,78.09
2023-05-17T02:23:17.049Z,79.87
2023-05-17T02:28:21.936Z,79.07
2023-05-17T02:33:25.532Z,77.61
2023-05-17T02:38:29.202Z,77.32
2023-05-17T02:43:34.081Z,77.87
2023-05-17T02:48:37.504Z,76.93
2023-05-17T02:53:41.163Z,77.55
2023-05-17T02:58:46.168Z,77.59
2023-05-17T03:03:49.880Z,76.21
2023-05-17T03:08:53.517Z,75.92
2023-05-17T03:13:58.455Z,76.27
2023-05-17T03:19:02.116Z,75.17
2023-05-17T03:24:06.220Z,74.44
2023-05-17T03:29:11.093Z,73.49
2023-05-17T03:34:14.632Z,72.03
2023-05-17T03:39:18.109Z,70.90
2023-05-17T03:44:23.108Z,69.74
2023-05-17T03:49:26.617Z,69.24
2023-05-17T03:54:30.168Z,68.16
2023-05-17T03:59:35.220Z,67.95
2023-05-17T04:04:38.663Z,66.79
2023-05-17T04:09:42.226Z,65.36
2023-05-17T04:14:47.334Z,64.21
2023-05-17T04:19:51.188Z,63.30
2023-05-17T04:24:56.127Z,62.11
2023-05-17T04:30:01.026Z,61.51
2023-05-17T04:35:04.664Z,60.63
2023-05-17T04:40:10.108Z,59.81
2023-05-17T04:45:16.343Z,58.48
2023-05-17T04:50:20.591Z,58.04
2023-05-17T04:55:24.152Z,57.81
2023-05-17T05:00:29.358Z,57.20
2023-05-17T05:05:32.809Z,55.79
2023-05-17T05:10:36.619Z,53.67
2023-05-17T05:15:41.668Z,53.48
2023-05-17T05:20:45.302Z,52.40
2023-05-17T05:25:48.743Z,50.79
2023-05-17T05:30:59.692Z,49.71
2023-05-17T05:36:03.083Z,48.39
2023-05-17T05:41:06.664Z,48.75
2023-05-17T05:46:11.579Z,47.09
2023-05-17T05:51:15.142Z,46.08
2023-05-17T05:56:18.732Z,46.01
2023-05-17T06:01:23.622Z,43.99
2023-05-17T06:06:27.320Z,43.17
2023-05-17T06:11:30.935Z,43.31
2023-05-17T06:16:38.970Z,41.50
2023-05-17T06:21:42.612Z,41.03
2023-05-17T06:26:47.282Z,39.97
2023-05-17T06:31:52.308Z,40.63
2023-05-17T06:36:56.187Z,39.38
2023-05-17T06:41:59.714Z,38.63
2023-05-17T06:47:04.990Z,38.70
2023-05-17T06:52:08.581Z,38.15
2023-05-17T06:57:12.284Z,37.94
2023-05-17T07:02:17.314Z,37.21
2023-05-17T07:07:21.457Z,36.97
2023-05-17T07:12:25.181Z,36.06
2023-05-17T07:17:30.577Z,37.02
2023-05-17T07:22:34.164Z,35.62
2023-05-17T07:27:37.592Z,35.88
2023-05-17T07:32:42.959Z,35.71
2023-05-17T07:37:47.585Z,35.53
2023-05-17T07:42:51.468Z,35.44
2023-05-17T07:47:56.759Z,34.89
2023-05-17T07:53:01.293Z,34.81
2023-05-17T07:58:04.975Z,34.25
2023-05-17T08:03:10.336Z,33.32
2023-05-17T08:08:13.924Z,32.37
2023-05-17T08:13:17.776Z,31.29
2023-05-17T08:18:22.710Z,29.23
2023-05-17T08:23:26.399Z,29.41
2023-05-17T08:28:29.796Z,25.69
2023-05-17T08:33:34.868Z,24.40
2023-05-17T08:38:38.532Z,24.14
2023-05-17T08:43:42.912Z,22.37
2023-05-17T08:48:52.240Z,22.42
2023-05-17T08:53:56.476Z,22.44
2023-05-17T08:59:01.043Z,20.59
2023-05-17T09:04:09.921Z,19.63
2023-05-17T09:09:36.733Z,17.28
2023-05-17T09:14:40.564Z,17.21
2023-05-17T09:19:50.650Z,19.33
2023-05-17T09:24:54.307Z,17.99
2023-05-17T09:29:58.369Z,15.97
2023-05-17T09:35:03.586Z,14.21
2023-05-17T09:40:09.192Z,13.86
2023-05-17T09:45:14.733Z,14.20
2023-05-17T09:50:23.828Z,17.59
2023-05-17T09:55:30.013Z,17.47
2023-05-17T10:00:34.155Z,14.87
2023-05-17T10:05:40.537Z,14.12
2023-05-17T10:10:46.785Z,12.42
2023-05-17T10:15:50.928Z,12.68
2023-05-17T10:20:57.262Z,14.12
2023-05-17T10:26:01.126Z,13.03
2023-05-17T10:31:05.532Z,10.60
2023-05-17T10:36:15.669Z,10.75
2023-05-17T10:41:21.943Z,11.35
2023-05-17T10:46:25.805Z,10.30
2023-05-17T10:51:32.866Z,11.48
2023-05-17T10:56:36.788Z,10.88
2023-05-17T11:01:54.720Z,11.30
2023-05-17T11:07:26.035Z,10.48
2023-05-17T11:12:38.549Z,10.51
2023-05-17T11:17:55.834Z,11.08
2023-05-17T11:23:02.494Z,11.45
2023-05-17T11:28:10.492Z,11.30
2023-05-17T11:33:29.062Z,10.62
2023-05-17T11:38:38.268Z,11.17
2023-05-17T11:43:47.429Z,11.87
2023-05-17T11:48:52.855Z,11.66
2023-05-17T11:53:58.534Z,11.93
2023-05-17T11:59:02.212Z,10.54
2023-05-17T12:04:06.034Z,10.28
2023-05-17T12:09:13.603Z,11.00
2023-05-17T12:14:18.563Z,11.67
2023-05-17T12:19:23.664Z,14.55
2023-05-17T12:24:38.804Z,13.68
2023-05-17T12:29:42.476Z,11.94
2023-05-17T12:34:46.827Z,12.36
2023-05-17T12:39:51.924Z,11.96
2023-05-17T12:44:55.437Z,11.26
2023-05-17T12:50:03.402Z,12.03
2023-05-17T12:55:15.113Z,11.40
2023-05-17T13:00:20.772Z,9.68
2023-05-17T13:05:24.570Z,11.41
2023-05-17T13:10:29.904Z,12.44
2023-05-17T13:15:34.848Z,11.62
2023-05-17T13:20:38.579Z,11.58
2023-05-17T13:25:43.753Z,11.71
2023-05-17T13:30:52.173Z,11.60
2023-05-17T13:35:55.799Z,10.97
2023-05-17T13:41:00.725Z,12.26
2023-05-17T13:46:04.455Z,12.25
2023-05-17T13:51:08.182Z,12.31
2023-05-17T13:56:13.067Z,13.27
2023-05-17T14:01:18.758Z,13.51
2023-05-17T14:06:22.653Z,13.25
2023-05-17T14:11:27.843Z,13.16
2023-05-17T14:16:31.355Z,13.62
2023-05-17T14:21:35.233Z,14.32
2023-05-17T14:26:40.319Z,14.40
2023-05-17T14:31:43.869Z,13.93
2023-05-17T14:36:47.309Z,15.06
2023-05-17T14:41:52.460Z,15.81
2023-05-17T14:46:56.030Z,15.78
2023-05-17T14:51:59.497Z,15.78
2023-05-17T14:57:05.086Z,16.56
2023-05-17T15:02:09.540Z,16.59
2023-05-17T15:07:12.971Z,16.87
2023-05-17T15:12:18.033Z,16.48
2023-05-17T15:17:21.821Z,17.13
2023-05-17T15:22:25.456Z,17.68
2023-05-17T15:27:30.319Z,18.21
2023-05-17T15:32:35.600Z,19.00
2023-05-17T15:37:39.187Z,19.93
2023-05-17T15:42:43.955Z,20.45
2023-05-17T15:47:47.765Z,20.32
2023-05-17T15:52:51.329Z,20.93
2023-05-17T15:57:56.394Z,21.23
2023-05-17T16:03:00.039Z,21.54
2023-05-17T16:08:03.756Z,21.95
2023-05-17T16:13:08.788Z,22.87
2023-05-17T16:18:15.078Z,23.83
2023-05-17T16:23:18.635Z,25.00
2023-05-17T16:28:24.596Z,26.04
2023-05-17T16:33:28.419Z,27.13
2023-05-17T16:38:32.083Z,27.62
2023-05-17T16:43:37.190Z,28.53
2023-05-17T16:48:41.178Z,29.76
2023-05-17T16:53:44.729Z,30.84
2023-05-17T16:58:49.847Z,32.12
2023-05-17T17:03:53.408Z,33.68
2023-05-17T17:08:57.009Z,35.24
2023-05-17T17:14:02.028Z,36.35
2023-05-17T17:19:06.256Z,37.82
2023-05-17T17:24:10.334Z,38.84
2023-05-17T17:29:15.436Z,40.10
2023-05-17T17:34:18.902Z,40.24
2023-05-17T17:39:22.671Z,41.37
2023-05-17T17:44:27.801Z,42.34
2023-05-17T17:49:31.442Z,42.87
2023-05-17T17:54:35.300Z,44.21
2023-05-17T17:59:40.478Z,44.83
2023-05-17T18:04:44.170Z,45.10
2023-05-17T18:09:47.875Z,46.11
2023-05-17T18:14:53.013Z,47.60
2023-05-17T18:19:56.965Z,48.04
2023-05-17T18:25:00.709Z,48.41
2023-05-17T18:30:06.161Z,48.87
2023-05-17T18:35:10.614Z,49.99
2023-05-17T18:40:16.435Z,51.14
2023-05-17T18:45:21.766Z,51.40
2023-05-17T18:50:25.269Z,51.75
2023-05-17T18:55:28.802Z,52.20
2023-05-17T19:00:33.683Z,52.13
2023-05-17T19:05:37.189Z,52.91
2023-05-17T19:10:40.894Z,53.19
2023-05-17T19:15:45.959Z,53.53
2023-05-17T19:20:49.542Z,53.83
2023-05-17T19:25:53.739Z,54.29
2023-05-17T19:30:58.874Z,54.67
2023-05-17T19:36:02.847Z,55.30
2023-05-17T19:41:07.598Z,55.09
2023-05-17T19:46:12.784Z,56.12
2023-05-17T19:51:16.706Z,56.69
2023-05-17T19:56:20.474Z,57.11
2023-05-17T20:01:25.539Z,57.90
2023-05-17T20:06:29.265Z,57.89
2023-05-17T20:11:32.835Z,58.54
2023-05-17T20:16:38.014Z,58.97
2023-05-17T20:21:42.276Z,58.54
2023-05-17T20:26:47.025Z,58.83
2023-05-17T20:31:52.312Z,59.94
2023-05-17T20:36:56.416Z,59.83
2023-05-17T20:42:01.362Z,60.36
2023-05-17T20:47:09.863Z,61.04
2023-05-17T20:52:14.011Z,61.30
2023-05-17T20:57:18.439Z,61.90
2023-05-17T21:02:25.100Z,62.36
2023-05-17T21:07:30.230Z,62.75
2023-05-17T21:12:34.634Z,62.92
2023-05-17T21:17:39.495Z,63.59
2023-05-17T21:22:43.076Z,63.81
2023-05-17T21:27:46.515Z,64.32
2023-05-17T21:32:51.527Z,64.88
2023-05-17T21:37:55.079Z,64.81
2023-05-17T21:42:58.709Z,65.04
2023-05-17T21:48:03.984Z,65.88
2023-05-17T21:53:07.482Z,65.82
2023-05-17T21:58:11.198Z,66.60
2023-05-17T22:03:16.477Z,67.02
2023-05-17T22:08:20.237Z,66.80
2023-05-17T22:13:26.432Z,67.37
2023-05-17T22:18:32.607Z,67.86
2023-05-17T22:23:36.106Z,68.53
2023-05-17T22:28:39.537Z,69.20
2023-05-17T22:33:44.352Z,69.14
2023-05-17T22:38:47.996Z,69.29
2023-05-17T22:43:51.610Z,69.44
2023-05-17T22:48:58.097Z,70.33
2023-05-17T22:54:01.532Z,70.46
2023-05-17T22:59:05.167Z,70.76
2023-05-17T23:04:10.236Z,71.63
2023-05-17T23:09:14.168Z,71.47
2023-05-17T23:14:18.274Z,71.88
2023-05-17T23:19:23.587Z,72.12
2023-05-17T23:24:27.575Z,72.66
2023-05-17T23:29:31.054Z,72.78
2023-05-17T23:34:35.907Z,73.59
2023-05-17T23:39:39.387Z,73.99
2023-05-17T23:44:43.296Z,74.27
2023-05-17T23:49:48.098Z,74.29
2023-05-17T23:54:52.119Z,74.94
2023-05-17T23:59:55.675Z,74.92
